Time;durP1;ratioP1;P1;durP2;ratioP2;P2;SDS_P1;SDS_P2;PMS_P1;PMS_P2;Temp;Humidity;BMP_temperature;BMP_pressure;BME280_temperature;BME280_humidity;BME280_pressure;Samples;Min_cycle;Max_cycle;Signal;HPM_P1;HPM_P2
2023/03/11 00:01:05;;;;;;;0.40;0.40;;;1.40;99.90;;;;;;5004676;28;20222;-58
2023/03/11 00:03:32;;;;;;;0.40;0.40;;;1.40;99.90;;;;;;4973006;28;20362;-59
2023/03/11 00:06:01;;;;;;;0.40;0.40;;;1.40;99.90;;;;;;4987399;28;20653;-59
2023/03/11 00:08:28;;;;;;;0.40;0.40;;;1.40;99.90;;;;;;4988964;28;20229;-58
2023/03/11 00:10:59;;;;;;;0.40;0.40;;;1.40;99.90;;;;;;5004701;28;20205;-60
2023/03/11 00:13:27;;;;;;;0.40;0.40;;;1.40;99.90;;;;;;4987609;28;20220;-58
2023/03/11 00:15:55;;;;;;;0.40;0.40;;;1.40;6.00;;;;;;4990083;28;20207;-60
2023/03/11 00:18:25;;;;;;;0.47;0.47;;;1.40;6.90;;;;;;4989738;28;20554;-58
2023/03/11 00:20:54;;;;;;;0.40;0.40;;;1.40;20.00;;;;;;4988480;28;20539;-60
2023/03/11 00:23:22;;;;;;;0.40;0.40;;;1.40;53.10;;;;;;4964362;28;20606;-59
2023/03/11 00:25:49;;;;;;;0.40;0.40;;;1.30;60.20;;;;;;5004734;28;20596;-58
2023/03/11 00:28:16;;;;;;;0.50;0.50;;;1.20;1.00;;;;;;4987790;28;20193;-58
2023/03/11 00:30:45;;;;;;;0.40;0.40;;;1.00;1.00;;;;;;4987504;28;20668;-58
2023/03/11 00:33:14;;;;;;;0.40;0.40;;;0.80;1.00;;;;;;5020784;28;20217;-58
2023/03/11 00:35:42;;;;;;;0.40;0.40;;;0.70;1.00;;;;;;4986008;28;20244;-58
2023/03/11 00:38:13;;;;;;;0.40;0.40;;;0.60;1.00;;;;;;4987936;28;20206;-59
2023/03/11 00:40:41;;;;;;;0.50;0.50;;;0.50;53.60;;;;;;5004368;28;20217;-58
2023/03/11 00:43:08;;;;;;;0.40;0.40;;;0.50;99.90;;;;;;4987056;28;20358;-58
2023/03/11 00:45:36;;;;;;;0.40;0.40;;;0.50;99.90;;;;;;5003139;28;20204;-58
2023/03/11 00:48:03;;;;;;;0.40;0.40;;;0.60;99.90;;;;;;4986764;28;20275;-59
2023/03/11 00:50:34;;;;;;;0.40;0.40;;;0.80;99.90;;;;;;4978815;28;20209;-59
2023/03/11 00:53:02;;;;;;;0.40;0.40;;;0.80;99.90;;;;;;4971124;28;20217;-59
2023/03/11 00:55:31;;;;;;;0.50;0.50;;;0.90;99.90;;;;;;4979672;28;20296;-59
2023/03/11 00:58:02;;;;;;;0.40;0.40;;;1.00;99.90;;;;;;5004037;28;20214;-58
2023/03/11 01:00:37;;;;;;;0.40;0.40;;;1.00;99.90;;;;;;4999169;28;20244;-59
2023/03/11 01:03:04;;;;;;;0.40;0.40;;;1.10;99.90;;;;;;4988526;28;20736;-59
2023/03/11 01:05:32;;;;;;;0.40;0.40;;;1.00;79.50;;;;;;4986566;28;20225;-62
2023/03/11 01:08:01;;;;;;;0.40;0.40;;;0.80;93.60;;;;;;4997831;28;20189;-60
2023/03/11 01:10:30;;;;;;;0.40;0.40;;;0.80;99.90;;;;;;4986827;28;20677;-59
2023/03/11 01:12:57;;;;;;;0.50;0.50;;;0.70;99.90;;;;;;4987750;28;20252;-59
2023/03/11 01:15:33;;;;;;;0.40;0.40;;;0.80;1.00;;;;;;4979266;28;20217;-59
2023/03/11 01:18:00;;;;;;;0.40;0.40;;;0.80;1.00;;;;;;4986837;28;20194;-60
2023/03/11 01:20:28;;;;;;;0.40;0.40;;;0.90;1.00;;;;;;4987443;28;20208;-59
2023/03/11 01:22:55;;;;;;;0.40;0.40;;;0.90;1.00;;;;;;4986973;28;20252;-60
2023/03/11 01:25:23;;;;;;;0.40;0.40;;;1.00;1.00;;;;;;5002617;28;20744;-58
2023/03/11 01:27:50;;;;;;;0.40;0.40;;;1.10;1.00;;;;;;5003395;28;20201;-61
2023/03/11 01:30:20;;;;;;;0.40;0.40;;;1.10;1.00;;;;;;4978383;28;20673;-58
2023/03/11 01:32:48;;;;;;;0.40;0.40;;;1.00;1.00;;;;;;5003411;28;20206;-59
2023/03/11 01:35:17;;;;;;;0.40;0.40;;;1.10;1.00;;;;;;4971366;28;20336;-59
2023/03/11 01:37:46;;;;;;;0.40;0.40;;;1.00;1.00;;;;;;4986625;28;20296;-59
2023/03/11 01:40:38;;;;;;;0.40;0.40;;;1.00;1.00;;;;;;5002924;28;20204;-58
2023/03/11 01:43:36;;;;;;;0.40;0.40;;;1.10;1.00;;;;;;4978084;28;20201;-58
2023/03/11 01:46:13;;;;;;;0.40;0.40;;;1.10;1.00;;;;;;4986740;28;20301;-59
2023/03/11 01:48:55;;;;;;;0.40;0.40;;;1.10;1.00;;;;;;4985811;28;20220;-58
2023/03/11 01:51:38;;;;;;;0.50;0.50;;;1.10;1.00;;;;;;5002478;28;20232;-59
2023/03/11 01:54:11;;;;;;;0.43;0.43;;;1.10;1.00;;;;;;5018134;28;20190;-59
2023/03/11 01:56:41;;;;;;;0.40;0.40;;;1.10;1.00;;;;;;5001171;28;20197;-59
2023/03/11 01:59:10;;;;;;;0.43;0.43;;;1.10;1.00;;;;;;5000718;28;20224;-60
2023/03/11 02:01:45;;;;;;;0.40;0.40;;;1.10;1.00;;;;;;4970719;28;20788;-60
2023/03/11 02:04:14;;;;;;;0.40;0.40;;;1.10;1.00;;;;;;5004120;22;20268;-64
2023/03/11 02:06:41;;;;;;;0.40;0.40;;;1.00;1.00;;;;;;4962017;28;20901;-64
2023/03/11 02:09:08;;;;;;;0.40;0.40;;;1.10;1.00;;;;;;4976618;28;20207;-64
2023/03/11 02:11:35;;;;;;;0.40;0.40;;;1.10;1.00;;;;;;4967282;28;20226;-65
2023/03/11 02:14:05;;;;;;;0.40;0.40;;;1.00;1.00;;;;;;4968340;28;20206;-64
2023/03/11 02:16:32;;;;;;;0.40;0.40;;;1.00;1.00;;;;;;4960161;28;20654;-64
2023/03/11 02:19:16;;;;;;;0.40;0.40;;;1.00;99.90;;;;;;4967983;28;20233;-65
2023/03/11 02:21:43;;;;;;;0.50;0.50;;;1.00;99.90;;;;;;4966249;28;20245;-64
2023/03/11 02:24:15;;;;;;;0.40;0.40;;;1.10;99.90;;;;;;4974898;28;20202;-64
2023/03/11 02:26:53;;;;;;;0.40;0.40;;;1.10;99.90;;;;;;4968477;28;20206;-65
2023/03/11 02:29:23;;;;;;;0.40;0.40;;;1.10;99.90;;;;;;4951051;28;20201;-65
2023/03/11 02:31:51;;;;;;;0.40;0.40;;;1.10;99.90;;;;;;4976390;28;20205;-64
2023/03/11 02:34:30;;;;;;;0.40;0.40;;;1.10;99.90;;;;;;4961875;28;20831;-64
2023/03/11 02:36:59;;;;;;;0.40;0.40;;;1.10;99.90;;;;;;4962475;28;20604;-64
2023/03/11 02:39:34;;;;;;;0.47;0.47;;;1.00;99.90;;;;;;4970184;28;20210;-63
2023/03/11 02:42:07;;;;;;;0.40;0.40;;;1.00;99.90;;;;;;4970639;28;20224;-65
2023/03/11 02:44:34;;;;;;;0.40;0.40;;;1.00;99.90;;;;;;4980322;28;20676;-64
2023/03/11 02:47:01;;;;;;;0.40;0.40;;;0.90;69.70;;;;;;4982098;28;20294;-63
2023/03/11 02:49:30;;;;;;;0.40;0.40;;;0.90;99.90;;;;;;4979619;28;20213;-65
2023/03/11 02:51:57;;;;;;;0.40;0.40;;;0.90;99.90;;;;;;4965558;28;20297;-64
2023/03/11 02:54:24;;;;;;;0.40;0.40;;;0.90;99.90;;;;;;4979402;28;20628;-64
2023/03/11 02:56:51;;;;;;;0.40;0.40;;;0.90;99.90;;;;;;4981213;28;20202;-64
2023/03/11 02:59:18;;;;;;;0.40;0.40;;;1.00;99.90;;;;;;4981263;28;20274;-65
2023/03/11 03:01:45;;;;;;;0.40;0.40;;;1.10;89.70;;;;;;4979454;28;20223;-64
2023/03/11 03:04:12;;;;;;;0.50;0.50;;;1.10;6.10;;;;;;4958257;28;20247;-64
2023/03/11 03:06:39;;;;;;;0.40;0.40;;;1.10;1.00;;;;;;4968466;28;20214;-64
2023/03/11 03:09:06;;;;;;;0.47;0.47;;;1.10;1.00;;;;;;4968058;28;20271;-64
2023/03/11 03:11:33;;;;;;;0.40;0.40;;;1.10;1.00;;;;;;4969318;28;20587;-75
2023/03/11 03:14:00;;;;;;;0.40;0.40;;;1.00;1.00;;;;;;4952612;29;20218;-73
2023/03/11 03:16:27;;;;;;;0.40;0.40;;;0.90;1.00;;;;;;4952590;29;20199;-74
2023/03/11 03:18:54;;;;;;;0.40;0.40;;;0.90;1.00;;;;;;4953175;29;20278;-70
2023/03/11 03:21:21;;;;;;;0.40;0.40;;;0.90;1.00;;;;;;4951710;29;20226;-73
2023/03/11 03:23:48;;;;;;;0.40;0.40;;;0.90;1.00;;;;;;4952500;29;20439;-72
2023/03/11 03:26:16;;;;;;;0.40;0.40;;;0.90;1.00;;;;;;4953375;29;20211;-74
2023/03/11 03:28:47;;;;;;;0.40;0.40;;;1.00;1.00;;;;;;4969368;28;20753;-73
2023/03/11 03:31:14;;;;;;;0.40;0.40;;;1.00;1.00;;;;;;4952993;28;20210;-73
2023/03/11 03:33:43;;;;;;;0.40;0.40;;;1.00;1.00;;;;;;4952712;29;20226;-75
2023/03/11 03:36:12;;;;;;;0.40;0.40;;;1.00;1.00;;;;;;4969691;28;20203;-73
2023/03/11 03:38:55;;;;;;;0.40;0.40;;;1.10;1.00;;;;;;4952001;29;20205;-73
2023/03/11 03:41:25;;;;;;;0.40;0.40;;;1.10;1.00;;;;;;4966920;28;20261;-74
2023/03/11 03:43:53;;;;;;;0.50;0.50;;;1.00;1.00;;;;;;4951892;28;20670;-65
2023/03/11 03:46:21;;;;;;;0.50;0.50;;;1.00;1.00;;;;;;4952138;28;20191;-66
2023/03/11 03:48:50;;;;;;;0.40;0.40;;;0.90;1.00;;;;;;4952254;28;20570;-65
2023/03/11 03:51:17;;;;;;;0.50;0.50;;;0.90;1.00;;;;;;4952430;29;20249;-65
2023/03/11 03:53:57;;;;;;;0.40;0.40;;;0.80;1.00;;;;;;4947920;29;20202;-66
2023/03/11 03:56:25;;;;;;;0.40;0.40;;;0.80;1.00;;;;;;4950488;29;20199;-65
2023/03/11 03:58:53;;;;;;;0.40;0.40;;;0.70;1.00;;;;;;4951023;28;20308;-65
2023/03/11 04:01:22;;;;;;;0.50;0.50;;;0.60;1.00;;;;;;4952089;28;20211;-65
2023/03/11 04:03:49;;;;;;;0.40;0.40;;;0.60;1.00;;;;;;4950269;29;20243;-65
2023/03/11 04:06:23;;;;;;;0.40;0.40;;;0.60;1.00;;;;;;4951158;29;20230;-64
2023/03/11 04:08:56;;;;;;;0.50;0.50;;;0.60;1.00;;;;;;4951123;28;20290;-66
2023/03/11 04:11:28;;;;;;;0.50;0.50;;;0.60;1.00;;;;;;4966882;28;20217;-64
2023/03/11 04:13:56;;;;;;;0.40;0.40;;;0.70;1.00;;;;;;4951559;29;20569;-65
2023/03/11 04:16:23;;;;;;;0.40;0.40;;;0.70;1.00;;;;;;4968931;28;20202;-64
2023/03/11 04:18:57;;;;;;;0.40;0.40;;;0.70;1.00;;;;;;4953682;28;21042;-64
2023/03/11 04:21:24;;;;;;;0.40;0.40;;;0.70;1.00;;;;;;4951372;29;20238;-64
2023/03/11 04:23:53;;;;;;;0.47;0.47;;;0.70;1.00;;;;;;4951467;29;20662;-64
2023/03/11 04:26:27;;;;;;;0.47;0.47;;;0.70;1.00;;;;;;4952165;29;20746;-64
2023/03/11 04:28:54;;;;;;;0.50;0.50;;;0.70;1.00;;;;;;4936518;29;20195;-64
2023/03/11 04:31:22;;;;;;;0.50;0.50;;;0.70;1.00;;;;;;4952128;29;20210;-66
2023/03/11 04:33:49;;;;;;;0.40;0.40;;;0.70;1.00;;;;;;4951240;28;20701;-63
2023/03/11 04:36:16;;;;;;;0.50;0.50;;;0.60;1.00;;;;;;4967951;28;20254;-64
2023/03/11 04:38:44;;;;;;;0.40;0.40;;;0.60;1.00;;;;;;4950723;29;20195;-65
2023/03/11 04:41:12;;;;;;;0.40;0.40;;;0.60;1.00;;;;;;4950904;28;20205;-64
2023/03/11 04:43:41;;;;;;;0.40;0.40;;;0.60;1.00;;;;;;4968770;28;20202;-64
2023/03/11 04:46:08;;;;;;;0.50;0.50;;;0.60;1.00;;;;;;4952348;29;20203;-64
2023/03/11 04:48:36;;;;;;;0.40;0.40;;;0.60;1.00;;;;;;4949728;29;20197;-65
2023/03/11 04:51:04;;;;;;;0.50;0.50;;;0.60;1.00;;;;;;4950794;29;20206;-67
2023/03/11 04:53:31;;;;;;;0.47;0.47;;;0.60;1.00;;;;;;4951002;28;20251;-66
2023/03/11 04:55:58;;;;;;;0.50;0.50;;;0.60;1.00;;;;;;4950835;28;20218;-65
2023/03/11 04:58:25;;;;;;;0.40;0.40;;;0.60;1.00;;;;;;4951771;28;20201;-66
2023/03/11 05:00:53;;;;;;;0.40;0.40;;;0.60;1.00;;;;;;4954001;28;20198;-65
2023/03/11 05:03:20;;;;;;;0.50;0.50;;;0.60;1.00;;;;;;4951534;28;20351;-65
2023/03/11 05:05:47;;;;;;;0.50;0.50;;;0.60;1.00;;;;;;4952461;29;20231;-64
2023/03/11 05:08:15;;;;;;;0.50;0.50;;;0.50;1.00;;;;;;4950710;29;20556;-64
2023/03/11 05:10:43;;;;;;;0.40;0.40;;;0.50;1.00;;;;;;4968538;28;20203;-64
2023/03/11 05:13:11;;;;;;;0.40;0.40;;;0.50;1.00;;;;;;4952661;29;20199;-63
2023/03/11 05:15:40;;;;;;;0.40;0.40;;;0.50;1.00;;;;;;4945327;29;20211;-63
2023/03/11 05:18:07;;;;;;;0.40;0.40;;;0.40;1.00;;;;;;4964930;28;20612;-64
2023/03/11 05:20:36;;;;;;;0.40;0.40;;;0.40;1.00;;;;;;4951877;28;20211;-64
2023/03/11 05:23:04;;;;;;;0.40;0.40;;;0.40;1.00;;;;;;4950471;29;20237;-66
2023/03/11 05:25:34;;;;;;;0.50;0.50;;;0.40;1.00;;;;;;4951353;28;20203;-66
2023/03/11 05:28:02;;;;;;;0.40;0.40;;;0.40;1.00;;;;;;4968001;28;20285;-64
2023/03/11 05:30:31;;;;;;;0.50;0.50;;;0.30;1.00;;;;;;4951610;29;20717;-64
2023/03/11 05:32:58;;;;;;;0.47;0.47;;;0.40;1.00;;;;;;4967784;28;20254;-66
2023/03/11 05:35:26;;;;;;;0.50;0.50;;;0.40;1.00;;;;;;4952266;29;20713;-63
2023/03/11 05:37:53;;;;;;;0.40;0.40;;;0.50;1.00;;;;;;4951014;29;20218;-65
2023/03/11 05:40:23;;;;;;;0.40;0.40;;;0.50;1.00;;;;;;4967851;28;20239;-63
2023/03/11 05:42:50;;;;;;;0.40;0.40;;;0.60;1.00;;;;;;4950508;29;20214;-64
2023/03/11 05:45:18;;;;;;;0.40;0.40;;;0.60;1.00;;;;;;4950943;29;20207;-64
2023/03/11 05:47:48;;;;;;;0.40;0.40;;;0.60;99.90;;;;;;4951569;28;20210;-64
2023/03/11 05:50:16;;;;;;;0.40;0.40;;;0.60;99.90;;;;;;4950623;28;20678;-65
2023/03/11 05:52:45;;;;;;;0.40;0.40;;;0.70;99.90;;;;;;4966375;28;20203;-64
2023/03/11 05:55:12;;;;;;;0.50;0.50;;;0.70;99.90;;;;;;4949894;29;20217;-65
2023/03/11 05:57:42;;;;;;;0.43;0.43;;;0.70;99.90;;;;;;4950694;29;20210;-64
2023/03/11 06:00:11;;;;;;;0.40;0.40;;;0.70;99.90;;;;;;4965988;28;20223;-64
2023/03/11 06:02:45;;;;;;;0.50;0.50;;;0.70;99.90;;;;;;4966159;28;20313;-64
2023/03/11 06:05:16;;;;;;;0.50;0.50;;;0.70;99.90;;;;;;4949349;29;20270;-65
2023/03/11 06:07:45;;;;;;;0.40;0.40;;;0.70;99.90;;;;;;4949214;29;20607;-64
2023/03/11 06:10:12;;;;;;;0.50;0.50;;;0.70;99.90;;;;;;4948888;29;20298;-64
2023/03/11 06:12:40;;;;;;;0.40;0.40;;;0.70;99.90;;;;;;4966026;28;20223;-64
2023/03/11 06:15:22;;;;;;;0.40;0.40;;;0.80;99.90;;;;;;4951423;29;20202;-65
2023/03/11 06:17:49;;;;;;;0.40;0.40;;;0.80;99.90;;;;;;4966595;28;20249;-65
2023/03/11 06:20:16;;;;;;;0.40;0.40;;;0.80;94.80;;;;;;4966930;28;20317;-64
2023/03/11 06:22:46;;;;;;;0.40;0.40;;;0.80;1.00;;;;;;4950266;29;20222;-65
2023/03/11 06:25:14;;;;;;;1.13;1.13;;;0.80;1.00;;;;;;4950697;28;20199;-64
2023/03/11 06:27:43;;;;;;;0.40;0.40;;;0.90;1.00;;;;;;4950403;29;20259;-65
2023/03/11 06:30:11;;;;;;;0.50;0.50;;;1.00;1.00;;;;;;4941968;29;20215;-64
2023/03/11 06:32:47;;;;;;;0.50;0.50;;;1.10;1.00;;;;;;4949856;29;20209;-64
2023/03/11 06:35:15;;;;;;;0.40;0.40;;;1.20;1.00;;;;;;4950648;29;20207;-64
2023/03/11 06:37:42;;;;;;;0.40;0.40;;;1.30;1.00;;;;;;4966061;28;20642;-68
2023/03/11 06:40:11;;;;;;;0.40;0.40;;;1.30;1.00;;;;;;4951328;29;20207;-63
2023/03/11 06:42:39;;;;;;;0.40;0.40;;;1.20;1.00;;;;;;4949345;29;20215;-65
2023/03/11 06:45:09;;;;;;;0.50;0.50;;;1.60;1.00;;;;;;4927839;29;20195;-64
2023/03/11 06:47:37;;;;;;;0.40;0.40;;;4.10;99.90;;;;;;4949581;28;20202;-68
2023/03/11 06:50:07;;;;;;;0.40;0.40;;;6.70;2.20;;;;;;4965754;28;20201;-65
2023/03/11 06:52:34;;;;;;;0.40;0.40;;;9.20;1.00;;;;;;4965093;28;20213;-67
2023/03/11 06:55:02;;;;;;;0.40;0.40;;;10.60;1.00;;;;;;4951680;29;20199;-66
2023/03/11 06:57:32;;;;;;;0.30;0.30;;;11.50;1.00;;;;;;4950496;29;20215;-66
2023/03/11 07:00:06;;;;;;;0.40;0.40;;;12.40;1.00;;;;;;4949471;29;20249;-65
2023/03/11 07:02:34;;;;;;;0.32;0.32;;;12.90;1.00;;;;;;4946021;29;20226;-65
2023/03/11 07:05:02;;;;;;;0.40;0.40;;;13.50;1.00;;;;;;4947142;29;20230;-65
2023/03/11 07:07:29;;;;;;;0.40;0.40;;;13.30;1.00;;;;;;4948609;29;20199;-66
2023/03/11 07:09:56;;;;;;;0.30;0.30;;;14.10;1.00;;;;;;4946620;29;20289;-65
2023/03/11 07:12:24;;;;;;;0.40;0.40;;;15.50;1.00;;;;;;4962429;28;20211;-65
2023/03/11 07:14:55;;;;;;;0.30;0.30;;;16.10;1.00;;;;;;4947513;29;20742;-66
2023/03/11 07:17:23;;;;;;;0.30;0.30;;;16.80;1.00;;;;;;4932655;29;20203;-66
2023/03/11 07:19:52;;;;;;;0.30;0.30;;;17.20;1.00;;;;;;4939495;29;20215;-66
2023/03/11 07:22:19;;;;;;;0.30;0.30;;;17.80;1.00;;;;;;4948386;28;20238;-67
2023/03/11 07:24:47;;;;;;;0.20;0.20;;;18.00;1.00;;;;;;4951338;28;20195;-67
2023/03/11 07:27:15;;;;;;;0.40;0.40;;;18.30;1.00;;;;;;4952065;29;20196;-68
2023/03/11 07:29:42;;;;;;;0.30;0.30;;;18.40;1.00;;;;;;4952149;28;20195;-66
2023/03/11 07:32:09;;;;;;;0.30;0.30;;;18.00;1.00;;;;;;4949841;29;20282;-66
2023/03/11 07:34:36;;;;;;;0.30;0.30;;;19.00;1.00;;;;;;4966434;28;20209;-66
2023/03/11 07:37:03;;;;;;;0.30;0.30;;;19.60;1.00;;;;;;4943919;29;20714;-66
2023/03/11 07:39:30;;;;;;;0.30;0.30;;;20.20;1.00;;;;;;4949188;29;20207;-66
2023/03/11 07:41:57;;;;;;;0.30;0.30;;;20.70;1.00;;;;;;4949863;28;20958;-66
2023/03/11 07:44:32;;;;;;;0.20;0.20;;;20.00;1.00;;;;;;4950305;29;20202;-66
2023/03/11 07:47:03;;;;;;;0.35;0.35;;;20.30;1.00;;;;;;4951960;29;20258;-65
2023/03/11 07:49:31;;;;;;;0.20;0.20;;;21.00;1.00;;;;;;4950212;29;20203;-65
2023/03/11 07:51:58;;;;;;;0.30;0.30;;;20.70;1.00;;;;;;4951432;29;20269;-67
2023/03/11 07:54:25;;;;;;;0.30;0.30;;;21.00;1.00;;;;;;4941873;29;20214;-66
2023/03/11 07:56:52;;;;;;;0.20;0.20;;;21.50;1.00;;;;;;4952493;28;20203;-64
2023/03/11 07:59:19;;;;;;;0.20;0.20;;;20.10;1.00;;;;;;4950788;28;20199;-65
2023/03/11 08:01:46;;;;;;;0.30;0.30;;;21.00;1.00;;;;;;4951665;28;20250;-65
2023/03/11 08:04:15;;;;;;;0.30;0.30;;;20.70;1.00;;;;;;4950652;28;20239;-65
2023/03/11 08:06:45;;;;;;;0.40;0.40;;;18.60;1.00;;;;;;4950716;29;20288;-64
2023/03/11 08:09:12;;;;;;;0.20;0.20;;;15.50;1.00;;;;;;4941605;29;20642;-63
2023/03/11 08:11:39;;;;;;;0.20;0.20;;;13.00;1.00;;;;;;4951372;29;20215;-64
2023/03/11 08:14:06;;;;;;;0.40;0.40;;;11.20;1.00;;;;;;4950324;29;20602;-64
2023/03/11 08:16:33;;;;;;;0.30;0.30;;;9.60;1.00;;;;;;4949863;29;20622;-67
2023/03/11 08:19:01;;;;;;;0.40;0.40;;;8.70;1.00;;;;;;4950447;28;20619;-66
2023/03/11 08:21:30;;;;;;;0.40;0.40;;;8.10;1.00;;;;;;4950331;29;20199;-64
2023/03/11 08:24:00;;;;;;;0.40;0.40;;;7.70;1.00;;;;;;4944310;29;20541;-64
2023/03/11 08:26:27;;;;;;;0.40;0.40;;;7.40;1.00;;;;;;4951916;29;20607;-66
2023/03/11 08:28:55;;;;;;;0.40;0.40;;;6.70;1.00;;;;;;4952951;28;20199;-73
2023/03/11 08:31:25;;;;;;;0.50;0.50;;;6.80;1.00;;;;;;4968071;28;20207;-64
2023/03/11 08:33:56;;;;;;;0.50;0.50;;;6.40;1.00;;;;;;4951015;28;20286;-68
2023/03/11 08:36:23;;;;;;;0.40;0.40;;;6.00;1.00;;;;;;4965951;28;20270;-67
2023/03/11 08:38:50;;;;;;;0.60;0.60;;;5.70;1.00;;;;;;4949088;29;20214;-68
2023/03/11 08:41:18;;;;;;;0.50;0.50;;;5.80;1.00;;;;;;4948722;28;20198;-68
2023/03/11 08:43:46;;;;;;;0.50;0.50;;;5.90;1.00;;;;;;4951488;28;20203;-67
2023/03/11 08:46:25;;;;;;;0.50;0.50;;;6.00;1.00;;;;;;4948946;29;20203;-65
2023/03/11 08:48:53;;;;;;;0.50;0.50;;;6.10;1.00;;;;;;4949445;28;20289;-65
2023/03/11 08:51:22;;;;;;;0.50;0.50;;;6.00;1.00;;;;;;4965868;28;20203;-63
2023/03/11 08:53:50;;;;;;;0.50;0.50;;;5.80;1.00;;;;;;4963030;28;20654;-65
2023/03/11 08:56:17;;;;;;;0.60;0.60;;;5.90;1.00;;;;;;4926306;29;20211;-65
2023/03/11 08:58:45;;;;;;;0.40;0.40;;;5.90;1.00;;;;;;4947448;29;20246;-65
2023/03/11 09:01:12;;;;;;;0.50;0.50;;;5.80;1.00;;;;;;4944148;29;20203;-71
2023/03/11 09:03:39;;;;;;;0.50;0.50;;;6.00;1.00;;;;;;4950338;28;20281;-65
2023/03/11 09:06:10;;;;;;;0.50;0.50;;;7.60;1.00;;;;;;4963859;28;20610;-65
2023/03/11 09:08:37;;;;;;;0.40;0.40;;;14.60;1.00;;;;;;4963472;28;20195;-66
2023/03/11 09:11:05;;;;;;;0.40;0.40;;;19.50;1.00;;;;;;4963496;28;20570;-66
2023/03/11 09:13:32;;;;;;;0.30;0.30;;;23.10;1.00;;;;;;4947783;29;20285;-64
2023/03/11 09:15:59;;;;;;;0.20;0.20;;;24.90;1.00;;;;;;4964293;28;20204;-65
2023/03/11 09:18:27;;;;;;;0.20;0.20;;;25.40;1.00;;;;;;4946736;29;20202;-65
2023/03/11 09:20:57;;;;;;;0.20;0.20;;;26.10;1.00;;;;;;4960960;28;20199;-64
2023/03/11 09:23:24;;;;;;;0.20;0.20;;;26.30;1.00;;;;;;4948535;28;20245;-64
2023/03/11 09:25:51;;;;;;;0.22;0.22;;;26.90;1.00;;;;;;4937417;28;20685;-64
2023/03/11 09:28:18;;;;;;;0.20;0.20;;;28.50;1.00;;;;;;4942250;28;20289;-64
2023/03/11 09:30:45;;;;;;;0.20;0.20;;;28.10;1.00;;;;;;4948431;28;20211;-65
2023/03/11 09:33:12;;;;;;;0.25;0.25;;;28.80;1.00;;;;;;4946111;28;20203;-64
2023/03/11 09:35:39;;;;;;;0.20;0.20;;;28.10;1.00;;;;;;4961340;28;20738;-64
2023/03/11 09:38:06;;;;;;;0.30;0.30;;;28.00;1.00;;;;;;4947276;29;20541;-65
2023/03/11 09:40:53;;;;;;;0.22;0.22;;;29.60;1.00;;;;;;4940174;29;20286;-64
2023/03/11 09:43:37;;;;;;;0.30;0.30;;;27.50;1.00;;;;;;4949709;28;20242;-64
2023/03/11 09:46:18;;;;;;;4.93;1.58;;;27.90;1.00;;;;;;4945837;28;20908;-65
2023/03/11 09:48:59;;;;;;;3.70;1.30;;;29.50;1.00;;;;;;4964119;28;20655;-63
2023/03/11 09:51:35;;;;;;;6.13;1.48;;;28.80;1.00;;;;;;4946651;28;20658;-63
2023/03/11 09:54:09;;;;;;;5.93;1.20;;;29.50;1.00;;;;;;4945444;28;20197;-64
2023/03/11 09:56:38;;;;;;;5.63;1.30;;;29.40;1.00;;;;;;4948246;29;20734;-64
2023/03/11 09:59:19;;;;;;;8.85;1.50;;;31.10;1.00;;;;;;4947619;29;20306;-64
2023/03/11 10:01:49;;;;;;;5.80;1.30;;;30.00;1.00;;;;;;4947577;29;20557;-64
2023/03/11 10:04:27;;;;;;;2.75;1.42;;;30.20;1.00;;;;;;4962996;28;20238;-64
2023/03/11 10:06:56;;;;;;;3.33;1.23;;;30.20;1.00;;;;;;4947128;29;20242;-64
2023/03/11 10:09:44;;;;;;;8.05;1.23;;;30.70;1.00;;;;;;4938953;29;20199;-66
2023/03/11 10:12:34;;;;;;;4.75;1.27;;;31.90;1.00;;;;;;4949016;28;20276;-65
2023/03/11 10:15:19;;;;;;;4.32;1.77;;;30.50;1.00;;;;;;4962208;28;20556;-66
2023/03/11 10:17:57;;;;;;;5.88;1.50;;;31.10;1.00;;;;;;4946507;28;20411;-65
2023/03/11 10:20:52;;;;;;;2.88;1.42;;;31.60;1.00;;;;;;4963340;28;20194;-65
2023/03/11 10:23:34;;;;;;;5.68;1.23;;;31.60;1.00;;;;;;4948382;29;20516;-65
2023/03/11 10:26:11;;;;;;;3.67;1.40;;;30.90;1.00;;;;;;4962445;28;20262;-65
2023/03/11 10:28:38;;;;;;;3.85;1.67;;;29.40;1.00;;;;;;4947886;29;20199;-66
2023/03/11 10:31:17;;;;;;;6.68;2.10;;;29.20;1.00;;;;;;4949131;29;20202;-65
2023/03/11 10:34:05;;;;;;;5.60;1.60;;;28.90;1.00;;;;;;4939517;29;20218;-65
2023/03/11 10:36:45;;;;;;;3.70;1.30;;;29.40;1.00;;;;;;4948094;29;20290;-64
2023/03/11 10:39:12;;;;;;;3.15;1.42;;;27.50;1.00;;;;;;4937997;29;20254;-64
2023/03/11 10:41:49;;;;;;;4.75;1.33;;;29.10;1.00;;;;;;4945523;29;20196;-64
2023/03/11 10:44:30;;;;;;;3.67;1.40;;;28.90;1.00;;;;;;4947603;29;20223;-64
2023/03/11 10:46:57;;;;;;;3.50;1.38;;;30.30;1.00;;;;;;4947755;29;20257;-64
2023/03/11 10:49:24;;;;;;;4.63;1.83;;;31.00;1.00;;;;;;4962625;28;20682;-64
2023/03/11 10:51:53;;;;;;;4.30;1.60;;;30.60;1.00;;;;;;4963519;28;20199;-64
2023/03/11 10:54:57;;;;;;;6.43;1.35;;;27.30;1.00;;;;;;4962240;28;20222;-65
2023/03/11 10:57:36;;;;;;;3.35;1.17;;;27.80;1.00;;;;;;4949477;28;20265;-66
2023/03/11 11:00:11;;;;;;;7.03;2.80;;;26.40;1.00;;;;;;4950645;28;20620;-65
2023/03/11 11:02:50;;;;;;;3.20;1.60;;;27.80;1.00;;;;;;4965356;28;20228;-64
2023/03/11 11:05:17;;;;;;;2.97;1.30;;;29.50;1.00;;;;;;4947191;28;20226;-65
2023/03/11 11:07:46;;;;;;;5.22;1.58;;;29.40;1.00;;;;;;4940968;28;20233;-64
2023/03/11 11:10:26;;;;;;;2.38;1.30;;;27.20;1.00;;;;;;4946749;28;20336;-64
2023/03/11 11:12:53;;;;;;;2.70;1.08;;;27.40;1.00;;;;;;4964630;28;20278;-64
2023/03/11 11:15:41;;;;;;;4.03;1.52;;;27.10;1.00;;;;;;4949891;29;20194;-64
2023/03/11 11:18:19;;;;;;;2.63;1.30;;;25.80;1.00;;;;;;4950863;28;20203;-64
2023/03/11 11:21:00;;;;;;;3.25;1.40;;;25.20;1.00;;;;;;4951647;28;20286;-64
2023/03/11 11:23:35;;;;;;;2.17;1.10;;;26.40;1.00;;;;;;4949132;28;20207;-64
2023/03/11 11:26:06;;;;;;;4.18;2.60;;;23.50;1.00;;;;;;4949537;28;20246;-64
2023/03/11 11:28:34;;;;;;;6.00;1.52;;;22.60;1.00;;;;;;4948950;28;20195;-64
2023/03/11 11:31:04;;;;;;;4.45;2.20;;;20.00;1.00;;;;;;4947346;28;20635;-64
2023/03/11 11:33:47;;;;;;;4.78;1.95;;;18.60;1.00;;;;;;4946668;29;21300;-64
2023/03/11 11:36:16;;;;;;;2.72;1.20;;;16.20;1.00;;;;;;4948285;29;21049;-66
2023/03/11 11:38:43;;;;;;;4.35;1.60;;;14.50;1.00;;;;;;4945335;28;20199;-65
2023/03/11 11:41:17;;;;;;;5.55;1.80;;;13.00;1.00;;;;;;4950340;29;20278;-65
2023/03/11 11:44:08;;;;;;;5.15;1.67;;;15.10;1.00;;;;;;4950052;29;20226;-65
2023/03/11 11:47:19;;;;;;;3.17;1.80;;;16.90;1.00;;;;;;4947822;28;20203;-65
2023/03/11 11:50:03;;;;;;;3.40;1.30;;;18.00;1.00;;;;;;4948434;28;20230;-63
2023/03/11 11:52:36;;;;;;;3.55;1.50;;;19.50;1.00;;;;;;4948297;29;20679;-65
2023/03/11 11:55:17;;;;;;;3.95;1.55;;;20.10;1.00;;;;;;4947422;29;20283;-63
2023/03/11 11:57:44;;;;;;;6.35;2.53;;;20.40;1.00;;;;;;4960306;28;20195;-63
2023/03/11 12:00:28;;;;;;;3.60;1.50;;;19.90;1.00;;;;;;4931257;28;20710;-63
2023/03/11 12:03:20;;;;;;;2.17;1.30;;;16.30;1.00;;;;;;4947021;29;20195;-63
2023/03/11 12:05:56;;;;;;;4.68;1.63;;;16.80;1.00;;;;;;4946107;29;21215;-64
2023/03/11 12:08:39;;;;;;;4.35;1.40;;;17.40;1.00;;;;;;4959848;28;20214;-65
2023/03/11 12:11:36;;;;;;;5.90;1.95;;;17.50;1.00;;;;;;4946418;28;20220;-63
2023/03/11 12:14:11;;;;;;;5.57;1.92;;;16.40;1.00;;;;;;4946944;29;20206;-64
2023/03/11 12:16:51;;;;;;;4.65;1.75;;;17.10;1.00;;;;;;4948915;29;20219;-65
2023/03/11 12:19:27;;;;;;;2.95;1.30;;;17.70;1.00;;;;;;4946602;28;20226;-64
2023/03/11 12:22:13;;;;;;;4.47;1.60;;;17.30;1.00;;;;;;4947209;28;20674;-65
2023/03/11 12:24:52;;;;;;;6.38;1.70;;;16.10;1.00;;;;;;4946857;29;20624;-65
2023/03/11 12:27:39;;;;;;;5.10;1.60;;;15.50;1.00;;;;;;4941691;28;20205;-66
2023/03/11 12:30:27;;;;;;;7.45;1.55;;;14.40;1.00;;;;;;4961684;28;20206;-65
2023/03/11 12:33:06;;;;;;;3.85;1.52;;;13.40;1.00;;;;;;4942599;28;20677;-66
2023/03/11 12:35:35;;;;;;;4.03;1.50;;;11.60;1.00;;;;;;4960177;28;20195;-65
2023/03/11 12:38:14;;;;;;;3.57;1.50;;;10.90;1.00;;;;;;4948617;29;20203;-65
2023/03/11 12:40:41;;;;;;;4.17;1.30;;;10.90;1.00;;;;;;4962392;28;20663;-65
2023/03/11 12:43:28;;;;;;;5.10;1.50;;;11.80;1.00;;;;;;4947923;28;20234;-65
2023/03/11 12:45:59;;;;;;;3.20;1.30;;;12.80;1.00;;;;;;4948527;28;20199;-65
2023/03/11 12:48:26;;;;;;;4.40;1.40;;;13.40;1.00;;;;;;4950426;29;20247;-64
2023/03/11 12:50:54;;;;;;;2.13;1.40;;;13.80;1.00;;;;;;4950281;28;20289;-65
2023/03/11 12:53:40;;;;;;;5.50;1.50;;;14.30;1.00;;;;;;4949437;29;20293;-66
2023/03/11 12:56:14;;;;;;;4.50;1.60;;;14.60;1.00;;;;;;4924414;28;20211;-64
2023/03/11 12:59:07;;;;;;;4.47;1.55;;;14.70;1.00;;;;;;4948018;29;20674;-67
2023/03/11 13:01:37;;;;;;;6.35;1.85;;;14.90;1.00;;;;;;4944044;28;20199;-65
2023/03/11 13:04:34;;;;;;;5.22;3.33;;;15.20;1.00;;;;;;4948105;28;20230;-64
2023/03/11 13:07:20;;;;;;;8.05;1.70;;;13.50;1.00;;;;;;4943676;28;20257;-65
2023/03/11 13:10:10;;;;;;;2.15;1.52;;;13.50;1.00;;;;;;4949757;28;20191;-64
2023/03/11 13:12:46;;;;;;;4.07;1.85;;;13.40;1.00;;;;;;4946803;29;20239;-64
2023/03/11 13:15:27;;;;;;;4.72;1.60;;;13.20;1.00;;;;;;4950362;28;20213;-65
2023/03/11 13:18:11;;;;;;;5.60;1.60;;;13.20;1.00;;;;;;4949876;29;20210;-66
2023/03/11 13:20:37;;;;;;;4.18;1.50;;;13.20;1.00;;;;;;4947078;28;20198;-64
2023/03/11 13:23:19;;;;;;;3.35;1.60;;;12.70;1.00;;;;;;4947040;28;20254;-65